Terminal Aerodrome Forecast
Issued by NWS Goodland, KS

Home | Current Version | Previous Version | Text Only | Print | Product List | Glossary On
Versions: 1 2 3 4 5 6 7 8 9 10 11 12 13 14 15 16 17 18
557
FTUS43 KGLD 232320
TAFGLD
TAF
KGLD 232320Z 2400/2424 16012KT P6SM SKC
     FM240500 15008KT P6SM VCSH FEW090 SCT100
     FM240800 13004KT P6SM VCSH SCT070 BKN090
     FM241000 35010KT 6SM -SHRA SCT040 OVC070
     FM241200 34013G25KT 6SM SHRA BKN025 OVC045
     FM241700 34020G25KT P6SM VCSH SCT015 OVC020=

USA.gov is the U.S. government's official web portal to all federal, state and local government web resources and services.